Time;durP1;ratioP1;P1;durP2;ratioP2;P2;SDS_P1;SDS_P2;PMS_P1;PMS_P2;Temp;Humidity;BMP_temperature;BMP_pressure;BME280_temperature;BME280_humidity;BME280_pressure;Samples;Min_cycle;Max_cycle;Signal;HPM_P1;HPM_P2
2023/09/05 00:00:06;;;;;;;0.20;0.20;;;;;;;-144.31;100.00;58022.63;4846376;29;20044;-60
2023/09/05 00:02:32;;;;;;;;;;;;;;;-144.31;100.00;58022.63;4846250;29;20042;-60
2023/09/05 00:04:57;;;;;;;0.20;0.20;;;;;;;-144.31;100.00;58022.63;4846556;29;20015;-59
2023/09/05 00:07:24;;;;;;;0.20;0.20;;;;;;;-144.31;100.00;58022.63;4847183;29;20552;-60
2023/09/05 00:09:49;;;;;;;0.20;0.20;;;;;;;-144.31;100.00;58022.63;4852481;29;20056;-61
2023/09/05 00:12:15;;;;;;;0.20;0.20;;;;;;;-144.31;100.00;58022.63;4848973;29;20053;-59
2023/09/05 00:14:41;;;;;;;0.20;0.20;;;;;;;-144.31;100.00;58022.63;4843150;29;21017;-60
2023/09/05 00:17:06;;;;;;;0.20;0.20;;;;;;;-144.31;100.00;58022.63;4846352;29;20033;-60
2023/09/05 00:19:32;;;;;;;0.20;0.20;;;;;;;-144.31;100.00;58022.63;4863096;29;20049;-61
2023/09/05 00:21:57;;;;;;;0.20;0.20;;;;;;;-144.31;100.00;58022.63;4847839;29;20045;-61
2023/09/05 00:24:33;;;;;;;0.20;0.20;;;;;;;-144.31;100.00;58022.63;4846604;29;20038;-59
2023/09/05 00:27:01;;;;;;;0.30;0.30;;;;;;;-144.31;100.00;58022.63;4846055;29;20051;-60
2023/09/05 00:29:26;;;;;;;;;;;;;;;-144.31;100.00;58022.63;4850832;29;20065;-59
2023/09/05 00:31:59;;;;;;;0.30;0.30;;;;;;;-144.31;100.00;58022.63;4865599;29;19971;-61
2023/09/05 00:34:36;;;;;;;0.20;0.20;;;;;;;-144.31;100.00;58022.63;4861134;29;20047;-59
2023/09/05 00:37:03;;;;;;;0.30;0.30;;;;;;;-144.31;100.00;58022.63;4844126;29;20045;-61
2023/09/05 00:39:29;;;;;;;0.30;0.30;;;;;;;-144.31;100.00;58022.63;4848478;29;20518;-60
2023/09/05 00:41:56;;;;;;;0.20;0.20;;;;;;;-144.31;100.00;58022.63;4850083;29;20253;-60
2023/09/05 00:44:25;;;;;;;0.30;0.30;;;;;;;-144.31;100.00;58022.63;4850409;29;20782;-59
2023/09/05 00:46:54;;;;;;;0.22;0.22;;;;;;;-144.31;100.00;58022.63;4860672;29;20069;-59
2023/09/05 00:49:22;;;;;;;0.20;0.20;;;;;;;-144.31;100.00;58022.63;4846745;29;20073;-59
2023/09/05 00:51:50;;;;;;;0.25;0.25;;;;;;;-144.31;100.00;58022.63;4850820;29;20408;-59
2023/09/05 00:54:17;;;;;;;0.30;0.30;;;;;;;-144.31;100.00;58022.63;4846530;29;20057;-59
2023/09/05 00:56:43;;;;;;;0.30;0.30;;;;;;;-144.31;100.00;58022.63;4859631;29;20118;-60
2023/09/05 00:59:10;;;;;;;0.30;0.30;;;;;;;-144.31;100.00;58022.63;4846456;29;20452;-58
2023/09/05 01:01:36;;;;;;;0.30;0.30;;;;;;;-144.31;100.00;58022.63;4847682;29;20045;-60
2023/09/05 01:04:01;;;;;;;0.30;0.30;;;;;;;-144.31;100.00;58022.63;4844264;29;20620;-59
2023/09/05 01:06:37;;;;;;;0.25;0.25;;;;;;;-144.31;100.00;58022.63;4846539;29;20381;-59
2023/09/05 01:09:18;;;;;;;0.30;0.30;;;;;;;-144.31;100.00;58022.63;4845524;29;20069;-60
2023/09/05 01:11:44;;;;;;;0.30;0.30;;;;;;;-144.31;100.00;58022.63;4856385;29;20469;-59
2023/09/05 01:14:10;;;;;;;0.30;0.30;;;;;;;-144.31;100.00;58022.63;4860090;29;20069;-60
2023/09/05 01:16:42;;;;;;;0.30;0.30;;;;;;;-144.31;100.00;58022.63;4843767;29;20798;-59
2023/09/05 01:19:08;;;;;;;0.30;0.30;;;;;;;-144.31;100.00;58022.63;4844785;29;20041;-59
2023/09/05 01:21:40;;;;;;;0.30;0.30;;;;;;;-144.31;100.00;58022.63;4847576;29;20041;-59
2023/09/05 01:24:14;;;;;;;0.30;0.30;;;;;;;-144.31;100.00;58022.63;4858952;29;20049;-59
2023/09/05 01:26:40;;;;;;;0.30;0.30;;;;;;;-144.31;100.00;58022.63;4842009;29;20038;-59
2023/09/05 01:29:08;;;;;;;0.30;0.30;;;;;;;-144.31;100.00;58022.63;4850281;29;20052;-59
2023/09/05 01:31:34;;;;;;;0.30;0.30;;;;;;;-144.31;100.00;58022.63;4845289;29;20144;-59
2023/09/05 01:33:59;;;;;;;0.30;0.30;;;;;;;-144.31;100.00;58022.63;4845162;29;20152;-59
2023/09/05 01:36:25;;;;;;;0.30;0.30;;;;;;;-144.31;100.00;58022.63;4835606;29;20045;-62
2023/09/05 01:38:50;;;;;;;0.30;0.30;;;;;;;-144.31;100.00;58022.63;4845084;29;20068;-59
2023/09/05 01:41:16;;;;;;;0.30;0.30;;;;;;;-144.31;100.00;58022.63;4848336;29;20038;-58
2023/09/05 01:43:42;;;;;;;0.30;0.30;;;;;;;-144.31;100.00;58022.63;4849088;29;20054;-59
2023/09/05 01:46:07;;;;;;;0.30;0.30;;;;;;;-144.31;100.00;58022.63;4844746;29;20468;-61
2023/09/05 01:48:32;;;;;;;0.30;0.30;;;;;;;-144.31;100.00;58022.63;4843517;29;20041;-60
2023/09/05 01:50:58;;;;;;;0.30;0.30;;;;;;;-144.31;100.00;58022.63;4845800;29;20076;-61
2023/09/05 01:53:24;;;;;;;0.30;0.30;;;;;;;-144.31;100.00;58022.63;4853143;29;20049;-59
2023/09/05 01:55:49;;;;;;;0.30;0.30;;;;;;;-144.31;100.00;58022.63;4846124;29;20075;-58
2023/09/05 01:58:15;;;;;;;0.30;0.30;;;;;;;-144.31;100.00;58022.63;4847207;29;20447;-59
2023/09/05 02:00:40;;;;;;;0.30;0.30;;;;;;;-144.31;100.00;58022.63;4847337;29;20404;-58
2023/09/05 02:03:06;;;;;;;0.30;0.30;;;;;;;-144.31;100.00;58022.63;4849034;29;20041;-61
2023/09/05 02:05:31;;;;;;;0.30;0.30;;;;;;;-144.31;100.00;58022.63;4844044;29;20073;-59
2023/09/05 02:07:57;;;;;;;0.30;0.30;;;;;;;-144.31;100.00;58022.63;4846354;29;20065;-59
2023/09/05 02:10:22;;;;;;;0.30;0.30;;;;;;;-144.31;100.00;58022.63;4853001;29;20136;-59
2023/09/05 02:12:50;;;;;;;0.30;0.30;;;;;;;-144.31;100.00;58022.63;4849035;29;20049;-58
2023/09/05 02:15:15;;;;;;;0.30;0.30;;;;;;;-144.31;100.00;58022.63;4847404;29;20038;-60
2023/09/05 02:17:40;;;;;;;0.30;0.30;;;;;;;-144.31;100.00;58022.63;4858470;29;20688;-60
2023/09/05 02:20:07;;;;;;;0.30;0.30;;;;;;;-144.31;100.00;58022.63;4844879;29;20037;-58
2023/09/05 02:22:32;;;;;;;0.30;0.30;;;;;;;-144.31;100.00;58022.63;4845971;29;20101;-58
2023/09/05 02:25:00;;;;;;;0.30;0.30;;;;;;;-144.31;100.00;58022.63;4849688;29;20041;-60
2023/09/05 02:27:26;;;;;;;0.40;0.40;;;;;;;-144.31;100.00;58022.63;4844557;29;20042;-58
2023/09/05 02:30:01;;;;;;;0.30;0.30;;;;;;;-144.31;100.00;58022.63;4861453;29;20494;-60
2023/09/05 02:32:29;;;;;;;0.30;0.30;;;;;;;-144.31;100.00;58022.63;4844737;29;20059;-61
2023/09/05 02:34:56;;;;;;;0.30;0.30;;;;;;;-144.31;100.00;58022.63;4843441;29;20508;-59
2023/09/05 02:37:21;;;;;;;0.30;0.30;;;;;;;-144.31;100.00;58022.63;4859298;29;20049;-59
2023/09/05 02:39:47;;;;;;;0.30;0.30;;;;;;;-144.31;100.00;58022.63;4846135;29;20066;-60
2023/09/05 02:42:12;;;;;;;0.30;0.30;;;;;;;-144.31;100.00;58022.63;4848304;29;20049;-60
2023/09/05 02:44:37;;;;;;;0.30;0.30;;;;;;;-144.31;100.00;58022.63;4857506;29;20048;-61
2023/09/05 02:47:06;;;;;;;0.30;0.30;;;;;;;-144.31;100.00;58022.63;4844276;29;20053;-60
2023/09/05 02:49:31;;;;;;;0.35;0.35;;;;;;;-144.31;100.00;58022.63;4850977;29;20050;-59
2023/09/05 02:51:57;;;;;;;0.30;0.30;;;;;;;-144.31;100.00;58022.63;4849539;29;20094;-60
2023/09/05 02:54:23;;;;;;;0.30;0.30;;;;;;;-144.31;100.00;58022.63;4843044;29;20049;-58
2023/09/05 02:56:49;;;;;;;0.30;0.30;;;;;;;-144.31;100.00;58022.63;4845169;29;20045;-58
2023/09/05 02:59:15;;;;;;;0.30;0.30;;;;;;;-144.31;100.00;58022.63;4843067;29;20033;-57
2023/09/05 03:01:40;;;;;;;0.30;0.30;;;;;;;-144.31;100.00;58022.63;4848549;29;20122;-62
2023/09/05 03:04:05;;;;;;;0.38;0.38;;;;;;;-144.31;100.00;58022.63;4859069;29;20500;-60
2023/09/05 03:06:31;;;;;;;0.30;0.30;;;;;;;-144.31;100.00;58022.63;4843966;29;20053;-58
2023/09/05 03:08:56;;;;;;;0.30;0.30;;;;;;;-144.31;100.00;58022.63;4848341;29;20041;-58
2023/09/05 03:11:22;;;;;;;0.40;0.40;;;;;;;-144.31;100.00;58022.63;4845433;29;20056;-59
2023/09/05 03:13:47;;;;;;;0.30;0.30;;;;;;;-144.31;100.00;58022.63;4856973;29;20034;-59
2023/09/05 03:16:14;;;;;;;0.30;0.30;;;;;;;-144.31;100.00;58022.63;4847292;29;20041;-59
2023/09/05 03:18:43;;;;;;;0.30;0.30;;;;;;;-144.31;100.00;58022.63;4845139;29;20045;-59
2023/09/05 03:21:09;;;;;;;0.40;0.40;;;;;;;-144.31;100.00;58022.63;4843951;29;20816;-60
2023/09/05 03:23:36;;;;;;;0.30;0.30;;;;;;;-144.31;100.00;58022.63;4843701;29;20084;-60
2023/09/05 03:26:01;;;;;;;0.30;0.30;;;;;;;-144.31;100.00;58022.63;4843197;29;20045;-59
2023/09/05 03:28:43;;;;;;;0.30;0.30;;;;;;;-144.31;100.00;58022.63;4852159;29;20045;-61
2023/09/05 03:31:18;;;;;;;0.30;0.30;;;;;;;-144.31;100.00;58022.63;4839708;29;20411;-58
2023/09/05 03:33:44;;;;;;;0.30;0.30;;;;;;;-144.31;100.00;58022.63;4851423;29;20106;-59
2023/09/05 03:36:10;;;;;;;0.30;0.30;;;;;;;-144.31;100.00;58022.63;4841956;29;20126;-61
2023/09/05 03:38:36;;;;;;;0.30;0.30;;;;;;;-144.31;100.00;58022.63;4859218;29;20052;-59
2023/09/05 03:41:02;;;;;;;0.35;0.35;;;;;;;-144.31;100.00;58022.63;4845772;29;20480;-59
2023/09/05 03:43:28;;;;;;;0.30;0.30;;;;;;;-144.31;100.00;58022.63;4847698;29;20064;-59
2023/09/05 03:45:53;;;;;;;0.30;0.30;;;;;;;-144.31;100.00;58022.63;4845750;29;20144;-59
2023/09/05 03:48:18;;;;;;;0.30;0.30;;;;;;;-144.31;100.00;58022.63;4843409;29;20661;-59
2023/09/05 03:50:47;;;;;;;0.30;0.30;;;;;;;-144.31;100.00;58022.63;4849052;29;20564;-58
2023/09/05 03:53:12;;;;;;;0.30;0.30;;;;;;;-144.31;100.00;58022.63;4848245;29;20082;-59
2023/09/05 03:55:40;;;;;;;0.30;0.30;;;;;;;-144.31;100.00;58022.63;4847820;29;20122;-61
2023/09/05 03:58:06;;;;;;;0.30;0.30;;;;;;;-144.31;100.00;58022.63;4848800;29;20049;-58
2023/09/05 04:00:33;;;;;;;0.30;0.30;;;;;;;-144.31;100.00;58022.63;4852024;29;20033;-58
2023/09/05 04:02:59;;;;;;;0.30;0.30;;;;;;;-144.31;100.00;58022.63;4842628;29;20128;-58
2023/09/05 04:05:25;;;;;;;0.40;0.40;;;;;;;-144.31;100.00;58022.63;4839005;29;20061;-58
2023/09/05 04:07:50;;;;;;;0.30;0.30;;;;;;;-144.31;100.00;58022.63;4854455;29;20124;-59
2023/09/05 04:10:15;;;;;;;0.30;0.30;;;;;;;-144.31;100.00;58022.63;4842748;29;20069;-60
2023/09/05 04:12:41;;;;;;;0.30;0.30;;;;;;;-144.31;100.00;58022.63;4859279;29;20133;-58
2023/09/05 04:15:07;;;;;;;0.30;0.30;;;;;;;-144.31;100.00;58022.63;4842437;29;20045;-58
2023/09/05 04:17:32;;;;;;;0.30;0.30;;;;;;;-144.31;100.00;58022.63;4842176;29;20045;-60
2023/09/05 04:20:00;;;;;;;0.30;0.30;;;;;;;-144.31;100.00;58022.63;4848855;29;20043;-60
2023/09/05 04:22:27;;;;;;;0.30;0.30;;;;;;;-144.31;100.00;58022.63;4858832;29;20117;-57
2023/09/05 04:24:55;;;;;;;0.30;0.30;;;;;;;-144.31;100.00;58022.63;4853105;29;20045;-58
2023/09/05 04:27:21;;;;;;;0.30;0.30;;;;;;;-144.31;100.00;58022.63;4841779;29;20065;-59
2023/09/05 04:29:54;;;;;;;0.40;0.40;;;;;;;-144.31;100.00;58022.63;4844285;29;20042;-60
2023/09/05 04:32:26;;;;;;;0.30;0.30;;;;;;;-144.31;100.00;58022.63;4856061;29;20103;-59
2023/09/05 04:34:59;;;;;;;0.30;0.30;;;;;;;-144.31;100.00;58022.63;4842120;29;20711;-58
2023/09/05 04:37:27;;;;;;;0.30;0.30;;;;;;;-144.31;100.00;58022.63;4842433;29;20050;-60
2023/09/05 04:39:56;;;;;;;0.40;0.40;;;;;;;-144.31;100.00;58022.63;4852307;29;20501;-58
2023/09/05 04:42:23;;;;;;;0.40;0.40;;;;;;;-144.31;100.00;58022.63;4842297;29;20057;-60
2023/09/05 04:44:50;;;;;;;0.30;0.30;;;;;;;-144.31;100.00;58022.63;4842255;29;20053;-60
2023/09/05 04:47:22;;;;;;;0.30;0.30;;;;;;;-144.31;100.00;58022.63;4843810;29;20042;-59
2023/09/05 04:49:51;;;;;;;0.30;0.30;;;;;;;-144.31;100.00;58022.63;4844639;29;20049;-58
2023/09/05 04:52:18;;;;;;;0.30;0.30;;;;;;;-144.31;100.00;58022.63;4846088;29;20868;-59
2023/09/05 04:54:45;;;;;;;0.40;0.40;;;;;;;-144.31;100.00;58022.63;4861874;29;20037;-59
2023/09/05 04:57:11;;;;;;;0.40;0.40;;;;;;;-144.31;100.00;58022.63;4846459;29;20492;-58
2023/09/05 04:59:37;;;;;;;0.32;0.32;;;;;;;-144.31;100.00;58022.63;4840804;29;20045;-58
2023/09/05 05:02:04;;;;;;;0.30;0.30;;;;;;;-144.31;100.00;58022.63;4846355;29;20038;-58
2023/09/05 05:04:29;;;;;;;0.30;0.30;;;;;;;-144.31;100.00;58022.63;4848497;29;20072;-61
2023/09/05 05:06:55;;;;;;;0.40;0.40;;;;;;;-144.31;100.00;58022.63;4851015;29;20041;-58
2023/09/05 05:09:20;;;;;;;0.40;0.40;;;;;;;-144.31;100.00;58022.63;4844658;29;20385;-59
2023/09/05 05:11:45;;;;;;;0.40;0.40;;;;;;;-144.31;100.00;58022.63;4845912;29;20437;-60
2023/09/05 05:14:11;;;;;;;0.35;0.35;;;;;;;-144.31;100.00;58022.63;4847467;29;20101;-58
2023/09/05 05:16:37;;;;;;;0.40;0.40;;;;;;;-144.31;100.00;58022.63;4844904;29;20064;-61
2023/09/05 05:19:03;;;;;;;0.40;0.40;;;;;;;-144.31;100.00;58022.63;4844891;29;20522;-60
2023/09/05 05:21:28;;;;;;;0.30;0.30;;;;;;;-144.31;100.00;58022.63;4851067;29;20106;-59
2023/09/05 05:23:55;;;;;;;0.40;0.40;;;;;;;-144.31;100.00;58022.63;4846351;29;20037;-59
2023/09/05 05:26:20;;;;;;;0.30;0.30;;;;;;;-144.31;100.00;58022.63;4846427;29;21040;-59
2023/09/05 05:28:45;;;;;;;0.30;0.30;;;;;;;-144.31;100.00;58022.63;4845938;29;20124;-59
2023/09/05 05:31:14;;;;;;;0.30;0.30;;;;;;;-144.31;100.00;58022.63;4844353;29;20049;-58
2023/09/05 05:33:39;;;;;;;0.40;0.40;;;;;;;-144.31;100.00;58022.63;4844512;29;20034;-58
2023/09/05 05:36:05;;;;;;;0.30;0.30;;;;;;;-144.31;100.00;58022.63;4844525;29;20053;-58
2023/09/05 05:38:31;;;;;;;0.40;0.40;;;;;;;-144.31;100.00;58022.63;4843297;29;20109;-58
2023/09/05 05:40:57;;;;;;;0.30;0.30;;;;;;;-144.31;100.00;58022.63;4846074;29;20050;-61
2023/09/05 05:43:26;;;;;;;0.40;0.40;;;;;;;-144.31;100.00;58022.63;4845535;29;20073;-59
2023/09/05 05:45:52;;;;;;;0.30;0.30;;;;;;;-144.31;100.00;58022.63;4846567;29;20044;-59
2023/09/05 05:48:17;;;;;;;0.30;0.30;;;;;;;-144.31;100.00;58022.63;4845883;29;20042;-59
2023/09/05 05:50:43;;;;;;;0.30;0.30;;;;;;;-144.31;100.00;58022.63;4850168;29;20500;-59
2023/09/05 05:53:08;;;;;;;0.30;0.30;;;;;;;-144.31;100.00;58022.63;4847853;29;20053;-60
2023/09/05 05:55:34;;;;;;;0.30;0.30;;;;;;;-144.31;100.00;58022.63;4851304;29;20056;-59
2023/09/05 05:58:00;;;;;;;0.30;0.30;;;;;;;-144.31;100.00;58022.63;4851210;29;20041;-59
2023/09/05 06:00:27;;;;;;;0.30;0.30;;;;;;;-144.31;100.00;58022.63;4846712;29;20065;-60
2023/09/05 06:02:52;;;;;;;0.30;0.30;;;;;;;-144.31;100.00;58022.63;4844255;29;20041;-61
2023/09/05 06:05:18;;;;;;;0.20;0.20;;;;;;;-144.31;100.00;58022.63;4849391;29;20037;-58
2023/09/05 06:07:43;;;;;;;0.20;0.20;;;;;;;-144.31;100.00;58022.63;4845183;29;20037;-59
2023/09/05 06:10:09;;;;;;;0.20;0.20;;;;;;;-144.31;100.00;58022.63;4850534;29;20049;-59
2023/09/05 06:12:35;;;;;;;0.20;0.20;;;;;;;-144.31;100.00;58022.63;4848044;29;20723;-59
2023/09/05 06:15:00;;;;;;;0.20;0.20;;;;;;;-144.31;100.00;58022.63;4843325;29;20716;-59
2023/09/05 06:17:26;;;;;;;0.20;0.20;;;;;;;-144.31;100.00;58022.63;4842589;29;20136;-59
2023/09/05 06:19:51;;;;;;;0.20;0.20;;;;;;;-144.31;100.00;58022.63;4846950;29;20109;-59
2023/09/05 06:22:17;;;;;;;0.20;0.20;;;;;;;-144.31;100.00;58022.63;4848373;29;20049;-59
2023/09/05 06:24:42;;;;;;;0.20;0.20;;;;;;;-144.31;100.00;58022.63;4843711;29;20424;-58
2023/09/05 06:27:10;;;;;;;0.20;0.20;;;;;;;-144.31;100.00;58022.63;4841561;29;20041;-60
2023/09/05 06:29:35;;;;;;;0.20;0.20;;;;;;;-144.31;100.00;58022.63;4847644;29;20037;-60
2023/09/05 06:32:01;;;;;;;0.13;0.13;;;;;;;-144.31;100.00;58022.63;4844848;29;20048;-59
2023/09/05 06:34:26;;;;;;;0.20;0.20;;;;;;;-144.31;100.00;58022.63;4844229;29;20077;-59
2023/09/05 06:36:52;;;;;;;0.20;0.20;;;;;;;-144.31;100.00;58022.63;4844659;29;20136;-59
2023/09/05 06:39:18;;;;;;;0.20;0.20;;;;;;;-144.31;100.00;58022.63;4845077;29;20048;-61
2023/09/05 06:41:43;;;;;;;0.20;0.20;;;;;;;-144.31;100.00;58022.63;4845829;29;20041;-60
2023/09/05 06:44:09;;;;;;;0.20;0.20;;;;;;;-144.31;100.00;58022.63;4846195;29;20069;-61
2023/09/05 06:46:35;;;;;;;0.20;0.20;;;;;;;-144.31;100.00;58022.63;4844839;29;20037;-59
2023/09/05 06:49:02;;;;;;;0.10;0.10;;;;;;;-144.31;100.00;58022.63;4845272;29;20471;-59
2023/09/05 06:51:29;;;;;;;0.20;0.20;;;;;;;-144.31;100.00;58022.63;4848002;29;20046;-58
2023/09/05 06:53:54;;;;;;;;;;;;;;;-144.31;100.00;58022.63;4844526;29;20049;-58
2023/09/05 06:56:20;;;;;;;0.20;0.20;;;;;;;-144.31;100.00;58022.63;4844956;29;20260;-59
2023/09/05 06:58:46;;;;;;;0.20;0.20;;;;;;;-144.31;100.00;58022.63;4848309;29;20408;-61
2023/09/05 07:01:13;;;;;;;0.10;0.10;;;;;;;-144.31;100.00;58022.63;4842662;29;20041;-59
2023/09/05 07:03:38;;;;;;;0.10;0.10;;;;;;;-144.31;100.00;58022.63;4844201;29;20041;-59
2023/09/05 07:06:04;;;;;;;0.10;0.10;;;;;;;-144.31;100.00;58022.63;4847505;29;20156;-58
2023/09/05 07:08:31;;;;;;;0.10;0.10;;;;;;;-144.31;100.00;58022.63;4847415;29;20074;-58
2023/09/05 07:10:57;;;;;;;0.10;0.10;;;;;;;-144.31;100.00;58022.63;4843986;29;20042;-61
2023/09/05 07:13:22;;;;;;;0.10;0.10;;;;;;;-144.31;100.00;58022.63;4844115;29;20037;-60
2023/09/05 07:15:48;;;;;;;0.10;0.10;;;;;;;-144.31;100.00;58022.63;4843062;29;20057;-58
2023/09/05 07:18:13;;;;;;;0.10;0.10;;;;;;;-144.31;100.00;58022.63;4841439;29;20677;-59
2023/09/05 07:20:39;;;;;;;0.10;0.10;;;;;;;-144.31;100.00;58022.63;4859966;29;20559;-61
2023/09/05 07:23:05;;;;;;;0.20;0.20;;;;;;;-144.31;100.00;58022.63;4844272;29;20205;-60
2023/09/05 07:25:31;;;;;;;0.10;0.10;;;;;;;-144.31;100.00;58022.63;4843754;29;20041;-59
2023/09/05 07:27:57;;;;;;;0.10;0.10;;;;;;;-144.31;100.00;58022.63;4843301;29;20033;-58
2023/09/05 07:30:22;;;;;;;0.10;0.10;;;;;;;-144.31;100.00;58022.63;4839922;29;20119;-58
2023/09/05 07:32:48;;;;;;;0.10;0.10;;;;;;;-144.31;100.00;58022.63;4842189;29;20045;-59
2023/09/05 07:35:22;;;;;;;0.20;0.20;;;;;;;-144.31;100.00;58022.63;4842004;29;20049;-59
2023/09/05 07:37:51;;;;;;;0.10;0.10;;;;;;;-144.31;100.00;58022.63;4845933;29;20185;-61
2023/09/05 07:40:17;;;;;;;0.10;0.10;;;;;;;-144.31;100.00;58022.63;4861060;29;20175;-58
2023/09/05 07:42:45;;;;;;;0.10;0.10;;;;;;;-144.31;100.00;58022.63;4842640;29;20033;-60
2023/09/05 07:45:10;;;;;;;0.10;0.10;;;;;;;-144.31;100.00;58022.63;4843762;29;20046;-61
2023/09/05 07:47:36;;;;;;;0.10;0.10;;;;;;;-144.31;100.00;58022.63;4842698;29;20057;-59
2023/09/05 07:50:02;;;;;;;0.10;0.10;;;;;;;-144.31;100.00;58022.63;4840321;29;20329;-59
2023/09/05 07:52:27;;;;;;;0.10;0.10;;;;;;;-144.31;100.00;58022.63;4841712;29;20514;-60
2023/09/05 07:54:53;;;;;;;0.10;0.10;;;;;;;-144.31;100.00;58022.63;4842072;29;20124;-58
2023/09/05 07:57:18;;;;;;;0.10;0.10;;;;;;;-144.31;100.00;58022.63;4843221;29;20484;-62
2023/09/05 07:59:44;;;;;;;0.20;0.20;;;;;;;-144.31;100.00;58022.63;4844076;29;20515;-60
2023/09/05 08:02:10;;;;;;;0.10;0.10;;;;;;;-144.31;100.00;58022.63;4842790;29;20046;-59
2023/09/05 08:04:38;;;;;;;0.10;0.10;;;;;;;-144.31;100.00;58022.63;4843010;29;20283;-59
2023/09/05 08:07:05;;;;;;;0.10;0.10;;;;;;;-144.31;100.00;58022.63;4846934;29;20037;-59
2023/09/05 08:09:31;;;;;;;0.10;0.10;;;;;;;-144.31;100.00;58022.63;4845571;29;20484;-59
2023/09/05 08:11:57;;;;;;;0.10;0.10;;;;;;;-144.31;100.00;58022.63;4843416;29;20053;-61
2023/09/05 08:14:22;;;;;;;0.10;0.10;;;;;;;-144.31;100.00;58022.63;4846664;29;20366;-58
2023/09/05 08:16:48;;;;;;;0.10;0.10;;;;;;;-144.31;100.00;58022.63;4846394;29;20523;-59
2023/09/05 08:19:14;;;;;;;0.10;0.10;;;;;;;-144.31;100.00;58022.63;4859425;29;20037;-58
2023/09/05 08:21:39;;;;;;;0.10;0.10;;;;;;;-144.31;100.00;58022.63;4844305;29;20626;-61
2023/09/05 08:24:04;;;;;;;0.10;0.10;;;;;;;-144.31;100.00;58022.63;4840917;29;20048;-59
2023/09/05 08:26:33;;;;;;;0.10;0.10;;;;;;;-144.31;100.00;58022.63;4852524;29;20397;-60
2023/09/05 08:28:59;;;;;;;0.10;0.10;;;;;;;-144.31;100.00;58022.63;4846396;29;20037;-59
2023/09/05 08:31:24;;;;;;;0.10;0.10;;;;;;;-144.31;100.00;58022.63;4849406;29;20045;-61
2023/09/05 08:33:50;;;;;;;0.10;0.10;;;;;;;-144.31;100.00;58022.63;4846752;29;20042;-60
2023/09/05 08:36:15;;;;;;;0.10;0.10;;;;;;;-144.31;100.00;58022.63;4847561;29;20680;-59
2023/09/05 08:38:44;;;;;;;0.10;0.10;;;;;;;-144.31;100.00;58022.63;4843750;29;20532;-59
2023/09/05 08:41:10;;;;;;;0.10;0.10;;;;;;;-144.31;100.00;58022.63;4844772;29;20067;-59
2023/09/05 08:43:35;;;;;;;0.10;0.10;;;;;;;-144.31;100.00;58022.63;4850392;29;20042;-59
2023/09/05 08:46:02;;;;;;;0.10;0.10;;;;;;;-144.31;100.00;58022.63;4863382;29;20046;-59
2023/09/05 08:48:28;;;;;;;0.10;0.10;;;;;;;-144.31;100.00;58022.63;4849779;29;20076;-58
2023/09/05 08:50:55;;;;;;;0.10;0.10;;;;;;;-144.31;100.00;58022.63;4851749;29;20052;-58
2023/09/05 08:53:25;;;;;;;0.10;0.10;;;;;;;-144.31;100.00;58022.63;4849660;29;20049;-58
2023/09/05 08:55:50;;;;;;;0.10;0.10;;;;;;;-144.31;100.00;58022.63;4850268;29;20045;-59
2023/09/05 08:58:17;;;;;;;0.10;0.10;;;;;;;-144.31;100.00;58022.63;4848809;29;20057;-59
2023/09/05 09:00:46;;;;;;;0.10;0.10;;;;;;;-144.31;100.00;58022.63;4848636;29;20041;-60
2023/09/05 09:03:11;;;;;;;0.10;0.10;;;;;;;-144.31;100.00;58022.63;4845726;29;20081;-59
2023/09/05 09:05:37;;;;;;;0.10;0.10;;;;;;;-144.31;100.00;58022.63;4853750;29;20042;-59
2023/09/05 09:08:03;;;;;;;0.10;0.10;;;;;;;-144.31;100.00;58022.63;4850667;29;20041;-58
2023/09/05 09:10:29;;;;;;;0.10;0.10;;;;;;;-144.31;100.00;58022.63;4862624;29;20046;-58
2023/09/05 09:13:12;;;;;;;0.10;0.10;;;;;;;-144.31;100.00;58022.63;4853463;29;20037;-58
2023/09/05 09:15:41;;;;;;;0.10;0.10;;;;;;;-144.31;100.00;58022.63;4848027;29;20813;-59
2023/09/05 09:18:10;;;;;;;0.10;0.10;;;;;;;-144.31;100.00;58022.63;4848464;29;20093;-59
2023/09/05 09:20:46;;;;;;;0.10;0.10;;;;;;;-144.31;100.00;58022.63;4855542;29;20049;-59
2023/09/05 09:23:12;;;;;;;0.10;0.10;;;;;;;-144.31;100.00;58022.63;4846090;29;20765;-58
2023/09/05 09:25:51;;;;;;;0.10;0.10;;;;;;;-144.31;100.00;58022.63;4844569;29;20042;-59
2023/09/05 09:28:20;;;;;;;0.03;0.03;;;;;;;-144.31;100.00;58022.63;4845182;29;20046;-59
2023/09/05 09:30:48;;;;;;;0.10;0.10;;;;;;;-144.31;100.00;58022.63;4849606;29;20041;-59
2023/09/05 09:33:14;;;;;;;0.10;0.10;;;;;;;-144.31;100.00;58022.63;4845464;29;20049;-61
2023/09/05 09:35:39;;;;;;;0.10;0.10;;;;;;;-144.31;100.00;58022.63;4846785;29;20045;-58
2023/09/05 09:38:05;;;;;;;0.10;0.10;;;;;;;-144.31;100.00;58022.63;4846864;29;20033;-59
2023/09/05 09:40:36;;;;;;;0.00;0.00;;;;;;;-144.31;100.00;58022.63;4845618;29;20400;-60
2023/09/05 09:43:02;;;;;;;0.00;0.00;;;;;;;-144.31;100.00;58022.63;4842956;29;20090;-61
2023/09/05 09:45:27;;;;;;;0.00;0.00;;;;;;;-144.31;100.00;58022.63;4847211;29;20160;-59
2023/09/05 09:47:57;;;;;;;0.07;0.07;;;;;;;-144.31;100.00;58022.63;4852657;29;20330;-59
2023/09/05 09:50:23;;;;;;;0.05;0.05;;;;;;;-144.31;100.00;58022.63;4851391;29;20049;-59
2023/09/05 09:52:52;;;;;;;0.10;0.10;;;;;;;-144.31;100.00;58022.63;4834073;29;20062;-60
2023/09/05 09:55:19;;;;;;;0.00;0.00;;;;;;;-144.31;100.00;58022.63;4846536;29;20293;-59
2023/09/05 09:57:55;;;;;;;0.00;0.00;;;;;;;-144.31;100.00;58022.63;4843173;29;20041;-59
2023/09/05 10:00:23;;;;;;;0.10;0.10;;;;;;;-144.31;100.00;58022.63;4847255;29;20155;-61
2023/09/05 10:02:49;;;;;;;0.00;0.00;;;;;;;-144.31;100.00;58022.63;4844164;29;20077;-59
2023/09/05 10:05:16;;;;;;;0.00;0.00;;;;;;;-144.31;100.00;58022.63;4848741;29;20034;-60
2023/09/05 10:07:46;;;;;;;0.00;0.00;;;;;;;-144.31;100.00;58022.63;4847899;29;20101;-60
2023/09/05 10:10:15;;;;;;;0.00;0.00;;;;;;;-144.31;100.00;58022.63;4846398;29;20140;-59
2023/09/05 10:12:45;;;;;;;0.00;0.00;;;;;;;-144.31;100.00;58022.63;4844459;29;20532;-60
2023/09/05 10:15:12;;;;;;;0.00;0.00;;;;;;;-144.31;100.00;58022.63;4863131;29;20113;-59
2023/09/05 10:17:40;;;;;;;0.03;0.03;;;;;;;-144.31;100.00;58022.63;4842926;29;20049;-60
2023/09/05 10:20:07;;;;;;;0.10;0.00;;;;;;;-144.31;100.00;58022.63;4846247;29;20044;-59
2023/09/05 10:22:39;;;;;;;0.00;0.00;;;;;;;-144.31;100.00;58022.63;4844819;29;20048;-59
2023/09/05 10:25:07;;;;;;;0.00;0.00;;;;;;;-144.31;100.00;58022.63;4845793;29;20568;-59
2023/09/05 10:27:32;;;;;;;0.00;0.00;;;;;;;-144.31;100.00;58022.63;4844113;29;20049;-59
2023/09/05 10:29:57;;;;;;;0.00;0.00;;;;;;;-144.31;100.00;58022.63;4847025;29;20045;-60
2023/09/05 10:32:24;;;;;;;0.00;0.00;;;;;;;-144.31;100.00;58022.63;4845839;29;20025;-61
2023/09/05 10:34:58;;;;;;;0.00;0.00;;;;;;;-144.31;100.00;58022.63;4848094;29;20117;-61
2023/09/05 10:37:38;;;;;;;0.00;0.00;;;;;;;-144.31;100.00;58022.63;4846238;29;20045;-60
2023/09/05 10:40:09;;;;;;;0.00;0.00;;;;;;;-144.31;100.00;58022.63;4844403;29;20045;-60
2023/09/05 10:42:48;;;;;;;0.00;0.00;;;;;;;-144.31;100.00;58022.63;4843632;29;20055;-58
2023/09/05 10:45:22;;;;;;;0.00;0.00;;;;;;;-144.31;100.00;58022.63;4845085;29;20045;-59
2023/09/05 10:47:49;;;;;;;0.00;0.00;;;;;;;-144.31;100.00;58022.63;4844031;29;20049;-57
2023/09/05 10:50:19;;;;;;;0.00;0.00;;;;;;;-144.31;100.00;58022.63;4846423;29;20094;-58
2023/09/05 10:53:06;;;;;;;0.00;0.00;;;;;;;-144.31;100.00;58022.63;4845768;29;20045;-57
2023/09/05 10:55:39;;;;;;;0.00;0.00;;;;;;;-144.31;100.00;58022.63;4847715;29;20148;-58
2023/09/05 10:58:45;;;;;;;0.00;0.00;;;;;;;-144.31;100.00;58022.63;4849457;29;20053;-61
2023/09/05 11:01:32;;;;;;;;;;;;;;;-144.31;100.00;58022.63;4849019;29;20713;-57
2023/09/05 11:04:20;;;;;;;0.00;0.00;;;;;;;-144.31;100.00;58022.63;4846285;29;19924;-58
2023/09/05 11:07:00;;;;;;;0.00;0.00;;;;;;;-144.31;100.00;58022.63;4862960;29;20057;-58
2023/09/05 11:09:26;;;;;;;0.00;0.00;;;;;;;-144.31;100.00;58022.63;4843765;29;20158;-59